Terminal Aerodrome Forecast
Issued by NWS

Home | Current Version | Previous Version | Text Only | Print | Product List | Glossary On
Versions: 1 2 3 4 5 6 7 8 9 10 11 12 13
000
FTUS43 KMQT 221951 AAA
TAFSAW
TAF AMD
KSAW 221951Z 2220/2318 27008KT P6SM VCSH OVC050
     FM222200 23006KT P6SM OVC090
     FM230000 21005KT P6SM BKN200
     FM231400 20009KT P6SM BKN130=

USA.gov is the U.S. government's official web portal to all federal, state and local government web resources and services.